sensor_id;sensor_type;location;lat;lon;timestamp;temperature;humidity
27858;DHT22;16852;51.446;6.528;2024-02-23T00:00:49;6.80;99.90
27858;DHT22;16852;51.446;6.528;2024-02-23T00:02:49;6.80;99.90
27858;DHT22;16852;51.446;6.528;2024-02-23T00:04:50;6.90;99.90
27858;DHT22;16852;51.446;6.528;2024-02-23T00:06:50;6.80;99.90
27858;DHT22;16852;51.446;6.528;2024-02-23T00:08:51;6.80;99.90
27858;DHT22;16852;51.446;6.528;2024-02-23T00:10:54;6.90;99.90
27858;DHT22;16852;51.446;6.528;2024-02-23T00:12:54;6.80;99.90
27858;DHT22;16852;51.446;6.528;2024-02-23T00:14:55;6.90;99.90
27858;DHT22;16852;51.446;6.528;2024-02-23T00:16:55;6.90;99.90
27858;DHT22;16852;51.446;6.528;2024-02-23T00:18:56;6.90;99.90
27858;DHT22;16852;51.446;6.528;2024-02-23T00:20:57;6.90;99.90
27858;DHT22;16852;51.446;6.528;2024-02-23T00:22:58;6.90;99.90
27858;DHT22;16852;51.446;6.528;2024-02-23T00:24:58;7.00;99.90
27858;DHT22;16852;51.446;6.528;2024-02-23T00:26:59;7.00;99.90
27858;DHT22;16852;51.446;6.528;2024-02-23T00:28:59;7.00;99.90
27858;DHT22;16852;51.446;6.528;2024-02-23T00:31:00;7.00;99.90
27858;DHT22;16852;51.446;6.528;2024-02-23T00:33:01;7.00;99.90
27858;DHT22;16852;51.446;6.528;2024-02-23T00:35:01;7.00;99.90
27858;DHT22;16852;51.446;6.528;2024-02-23T00:37:03;6.90;99.90
27858;DHT22;16852;51.446;6.528;2024-02-23T00:39:04;7.00;99.90
27858;DHT22;16852;51.446;6.528;2024-02-23T00:41:04;7.00;99.90
27858;DHT22;16852;51.446;6.528;2024-02-23T00:43:05;7.00;99.90
27858;DHT22;16852;51.446;6.528;2024-02-23T00:45:06;7.00;99.90
27858;DHT22;16852;51.446;6.528;2024-02-23T00:47:07;7.00;99.90
27858;DHT22;16852;51.446;6.528;2024-02-23T00:49:07;7.00;99.90
27858;DHT22;16852;51.446;6.528;2024-02-23T00:51:08;7.00;99.90
27858;DHT22;16852;51.446;6.528;2024-02-23T00:53:09;7.00;99.90
27858;DHT22;16852;51.446;6.528;2024-02-23T00:55:10;6.90;99.90
27858;DHT22;16852;51.446;6.528;2024-02-23T00:57:10;6.90;99.90
27858;DHT22;16852;51.446;6.528;2024-02-23T00:59:11;6.90;99.90
27858;DHT22;16852;51.446;6.528;2024-02-23T01:01:12;6.90;99.90
27858;DHT22;16852;51.446;6.528;2024-02-23T01:03:12;6.90;99.90
27858;DHT22;16852;51.446;6.528;2024-02-23T01:05:13;6.90;99.90
27858;DHT22;16852;51.446;6.528;2024-02-23T01:07:14;6.90;99.90
27858;DHT22;16852;51.446;6.528;2024-02-23T01:09:15;6.90;99.90
27858;DHT22;16852;51.446;6.528;2024-02-23T01:11:17;6.90;99.90
27858;DHT22;16852;51.446;6.528;2024-02-23T01:13:18;6.90;99.90
27858;DHT22;16852;51.446;6.528;2024-02-23T01:15:18;6.90;99.90
27858;DHT22;16852;51.446;6.528;2024-02-23T01:17:19;7.00;99.90
27858;DHT22;16852;51.446;6.528;2024-02-23T01:19:20;7.00;99.90
27858;DHT22;16852;51.446;6.528;2024-02-23T01:21:20;7.00;99.90
27858;DHT22;16852;51.446;6.528;2024-02-23T01:23:21;7.00;99.90
27858;DHT22;16852;51.446;6.528;2024-02-23T01:25:22;6.90;99.90
27858;DHT22;16852;51.446;6.528;2024-02-23T01:27:22;7.00;99.90
27858;DHT22;16852;51.446;6.528;2024-02-23T01:29:25;7.00;99.90
27858;DHT22;16852;51.446;6.528;2024-02-23T01:31:25;7.00;99.90
27858;DHT22;16852;51.446;6.528;2024-02-23T01:33:26;7.00;99.90
27858;DHT22;16852;51.446;6.528;2024-02-23T01:35:27;7.00;99.90
27858;DHT22;16852;51.446;6.528;2024-02-23T01:37:27;7.00;99.90
27858;DHT22;16852;51.446;6.528;2024-02-23T01:39:28;6.90;99.90
27858;DHT22;16852;51.446;6.528;2024-02-23T01:41:28;6.90;99.90
27858;DHT22;16852;51.446;6.528;2024-02-23T01:43:29;6.90;99.90
27858;DHT22;16852;51.446;6.528;2024-02-23T01:45:30;6.90;99.90
27858;DHT22;16852;51.446;6.528;2024-02-23T01:47:31;6.90;99.90
27858;DHT22;16852;51.446;6.528;2024-02-23T01:49:33;6.90;99.90
27858;DHT22;16852;51.446;6.528;2024-02-23T01:51:34;6.90;99.90
27858;DHT22;16852;51.446;6.528;2024-02-23T01:53:35;6.90;99.90
27858;DHT22;16852;51.446;6.528;2024-02-23T01:55:37;6.90;99.90
27858;DHT22;16852;51.446;6.528;2024-02-23T01:57:38;6.90;99.90
27858;DHT22;16852;51.446;6.528;2024-02-23T01:59:39;6.90;99.90
27858;DHT22;16852;51.446;6.528;2024-02-23T02:01:43;6.80;99.90
27858;DHT22;16852;51.446;6.528;2024-02-23T02:03:44;6.80;99.90
27858;DHT22;16852;51.446;6.528;2024-02-23T02:05:45;6.90;99.90
27858;DHT22;16852;51.446;6.528;2024-02-23T02:07:47;6.90;99.90
27858;DHT22;16852;51.446;6.528;2024-02-23T02:09:50;7.00;99.90
27858;DHT22;16852;51.446;6.528;2024-02-23T02:11:51;7.00;99.90
27858;DHT22;16852;51.446;6.528;2024-02-23T02:13:52;7.00;99.90
27858;DHT22;16852;51.446;6.528;2024-02-23T02:15:52;6.90;99.90
27858;DHT22;16852;51.446;6.528;2024-02-23T02:17:53;7.00;99.90
27858;DHT22;16852;51.446;6.528;2024-02-23T02:19:54;6.90;99.90
27858;DHT22;16852;51.446;6.528;2024-02-23T02:21:56;6.90;99.90
27858;DHT22;16852;51.446;6.528;2024-02-23T02:23:56;6.90;99.90
27858;DHT22;16852;51.446;6.528;2024-02-23T02:25:58;6.90;99.90
27858;DHT22;16852;51.446;6.528;2024-02-23T02:27:58;6.80;99.90
27858;DHT22;16852;51.446;6.528;2024-02-23T02:29:59;6.90;99.90
27858;DHT22;16852;51.446;6.528;2024-02-23T02:32:00;6.80;99.90
27858;DHT22;16852;51.446;6.528;2024-02-23T02:34:00;6.80;99.90
27858;DHT22;16852;51.446;6.528;2024-02-23T02:36:01;6.70;99.90
27858;DHT22;16852;51.446;6.528;2024-02-23T02:38:01;6.70;99.90
27858;DHT22;16852;51.446;6.528;2024-02-23T02:40:02;6.70;99.90
27858;DHT22;16852;51.446;6.528;2024-02-23T02:42:04;6.70;99.90
27858;DHT22;16852;51.446;6.528;2024-02-23T02:44:04;6.70;99.90
27858;DHT22;16852;51.446;6.528;2024-02-23T02:46:05;6.70;99.90
27858;DHT22;16852;51.446;6.528;2024-02-23T02:48:06;6.70;99.90
27858;DHT22;16852;51.446;6.528;2024-02-23T02:50:07;6.70;99.90
27858;DHT22;16852;51.446;6.528;2024-02-23T02:52:07;6.70;99.90
27858;DHT22;16852;51.446;6.528;2024-02-23T02:54:08;6.60;99.90
27858;DHT22;16852;51.446;6.528;2024-02-23T02:56:09;6.70;99.90
27858;DHT22;16852;51.446;6.528;2024-02-23T02:58:13;6.60;99.90
27858;DHT22;16852;51.446;6.528;2024-02-23T03:00:14;6.70;99.90
27858;DHT22;16852;51.446;6.528;2024-02-23T03:02:14;6.70;99.90
27858;DHT22;16852;51.446;6.528;2024-02-23T03:04:15;6.70;99.90
27858;DHT22;16852;51.446;6.528;2024-02-23T03:06:16;6.60;99.90
27858;DHT22;16852;51.446;6.528;2024-02-23T03:08:16;6.60;99.90
27858;DHT22;16852;51.446;6.528;2024-02-23T03:10:17;6.60;99.90
27858;DHT22;16852;51.446;6.528;2024-02-23T03:12:18;6.60;99.90
27858;DHT22;16852;51.446;6.528;2024-02-23T03:14:18;6.60;99.90
27858;DHT22;16852;51.446;6.528;2024-02-23T03:16:21;6.60;99.90
27858;DHT22;16852;51.446;6.528;2024-02-23T03:18:23;6.50;99.90
27858;DHT22;16852;51.446;6.528;2024-02-23T03:20:24;6.50;99.90
27858;DHT22;16852;51.446;6.528;2024-02-23T03:22:24;6.50;99.90
27858;DHT22;16852;51.446;6.528;2024-02-23T03:24:25;6.50;99.90
27858;DHT22;16852;51.446;6.528;2024-02-23T03:26:26;6.50;99.90
27858;DHT22;16852;51.446;6.528;2024-02-23T03:28:26;6.50;99.90
27858;DHT22;16852;51.446;6.528;2024-02-23T03:30:27;6.50;99.90
27858;DHT22;16852;51.446;6.528;2024-02-23T03:32:28;6.50;99.90
27858;DHT22;16852;51.446;6.528;2024-02-23T03:34:28;6.50;99.90
27858;DHT22;16852;51.446;6.528;2024-02-23T03:36:29;6.60;99.90
27858;DHT22;16852;51.446;6.528;2024-02-23T03:38:29;6.50;99.90
27858;DHT22;16852;51.446;6.528;2024-02-23T03:40:30;6.50;99.90
27858;DHT22;16852;51.446;6.528;2024-02-23T03:42:31;6.60;99.90
27858;DHT22;16852;51.446;6.528;2024-02-23T03:44:31;6.50;99.90
27858;DHT22;16852;51.446;6.528;2024-02-23T03:46:32;6.60;99.90
27858;DHT22;16852;51.446;6.528;2024-02-23T03:48:32;6.50;99.90
27858;DHT22;16852;51.446;6.528;2024-02-23T03:50:33;6.50;99.90
27858;DHT22;16852;51.446;6.528;2024-02-23T03:52:33;6.50;99.90
27858;DHT22;16852;51.446;6.528;2024-02-23T03:54:34;6.50;99.90
27858;DHT22;16852;51.446;6.528;2024-02-23T03:56:41;6.50;99.90
27858;DHT22;16852;51.446;6.528;2024-02-23T03:58:42;6.50;99.90
27858;DHT22;16852;51.446;6.528;2024-02-23T04:00:43;6.50;99.90
27858;DHT22;16852;51.446;6.528;2024-02-23T04:02:44;6.50;99.90
27858;DHT22;16852;51.446;6.528;2024-02-23T04:04:44;6.50;99.90
27858;DHT22;16852;51.446;6.528;2024-02-23T04:09:42;6.60;99.90
27858;DHT22;16852;51.446;6.528;2024-02-23T04:11:42;6.50;99.90
27858;DHT22;16852;51.446;6.528;2024-02-23T04:13:43;6.50;99.90
27858;DHT22;16852;51.446;6.528;2024-02-23T04:15:44;6.60;99.90
27858;DHT22;16852;51.446;6.528;2024-02-23T04:17:45;6.60;99.90
27858;DHT22;16852;51.446;6.528;2024-02-23T04:19:46;6.60;99.90
27858;DHT22;16852;51.446;6.528;2024-02-23T04:21:47;6.60;99.90
27858;DHT22;16852;51.446;6.528;2024-02-23T04:23:47;6.60;99.90
27858;DHT22;16852;51.446;6.528;2024-02-23T04:25:48;6.60;99.90
27858;DHT22;16852;51.446;6.528;2024-02-23T04:27:51;6.60;99.90
27858;DHT22;16852;51.446;6.528;2024-02-23T04:29:51;6.60;99.90
27858;DHT22;16852;51.446;6.528;2024-02-23T04:31:52;6.70;99.90
27858;DHT22;16852;51.446;6.528;2024-02-23T04:33:52;6.70;99.90
27858;DHT22;16852;51.446;6.528;2024-02-23T04:35:53;6.70;99.90
27858;DHT22;16852;51.446;6.528;2024-02-23T04:37:53;6.60;99.90
27858;DHT22;16852;51.446;6.528;2024-02-23T04:39:54;6.70;99.90
27858;DHT22;16852;51.446;6.528;2024-02-23T04:41:55;6.60;99.90
27858;DHT22;16852;51.446;6.528;2024-02-23T04:43:55;6.60;99.90
27858;DHT22;16852;51.446;6.528;2024-02-23T04:46:00;6.70;99.90
27858;DHT22;16852;51.446;6.528;2024-02-23T04:48:00;6.70;99.90
27858;DHT22;16852;51.446;6.528;2024-02-23T04:50:02;6.60;99.90
27858;DHT22;16852;51.446;6.528;2024-02-23T04:52:05;6.60;99.90
27858;DHT22;16852;51.446;6.528;2024-02-23T04:54:06;6.70;99.90
27858;DHT22;16852;51.446;6.528;2024-02-23T04:56:06;6.60;99.90
27858;DHT22;16852;51.446;6.528;2024-02-23T04:58:07;6.60;99.90
27858;DHT22;16852;51.446;6.528;2024-02-23T05:00:08;6.60;99.90
27858;DHT22;16852;51.446;6.528;2024-02-23T05:02:09;6.60;99.90
27858;DHT22;16852;51.446;6.528;2024-02-23T05:04:09;6.60;99.90
27858;DHT22;16852;51.446;6.528;2024-02-23T05:06:10;6.60;99.90
27858;DHT22;16852;51.446;6.528;2024-02-23T05:08:10;6.60;99.90
27858;DHT22;16852;51.446;6.528;2024-02-23T05:10:11;6.60;99.90
27858;DHT22;16852;51.446;6.528;2024-02-23T05:12:12;6.50;99.90
27858;DHT22;16852;51.446;6.528;2024-02-23T05:14:12;6.60;99.90
27858;DHT22;16852;51.446;6.528;2024-02-23T05:16:16;6.50;99.90
27858;DHT22;16852;51.446;6.528;2024-02-23T05:18:16;6.50;99.90
27858;DHT22;16852;51.446;6.528;2024-02-23T05:20:17;6.50;99.90
27858;DHT22;16852;51.446;6.528;2024-02-23T05:22:18;6.50;99.90
27858;DHT22;16852;51.446;6.528;2024-02-23T05:24:19;6.60;99.90
27858;DHT22;16852;51.446;6.528;2024-02-23T05:26:20;6.60;99.90
27858;DHT22;16852;51.446;6.528;2024-02-23T05:28:21;6.60;99.90
27858;DHT22;16852;51.446;6.528;2024-02-23T05:30:21;6.60;99.90
27858;DHT22;16852;51.446;6.528;2024-02-23T05:32:22;6.60;99.90
27858;DHT22;16852;51.446;6.528;2024-02-23T05:34:23;6.60;99.90
27858;DHT22;16852;51.446;6.528;2024-02-23T05:36:23;6.60;99.90
27858;DHT22;16852;51.446;6.528;2024-02-23T05:38:24;6.60;99.90
27858;DHT22;16852;51.446;6.528;2024-02-23T05:40:24;6.60;99.90
27858;DHT22;16852;51.446;6.528;2024-02-23T05:42:25;6.60;99.90
27858;DHT22;16852;51.446;6.528;2024-02-23T05:44:26;6.70;99.90
27858;DHT22;16852;51.446;6.528;2024-02-23T05:46:27;6.70;99.90
27858;DHT22;16852;51.446;6.528;2024-02-23T05:48:28;6.60;99.90
27858;DHT22;16852;51.446;6.528;2024-02-23T05:50:28;6.60;99.90
27858;DHT22;16852;51.446;6.528;2024-02-23T05:52:31;6.70;99.90
27858;DHT22;16852;51.446;6.528;2024-02-23T05:54:31;6.60;99.90
27858;DHT22;16852;51.446;6.528;2024-02-23T05:56:32;6.70;99.90
27858;DHT22;16852;51.446;6.528;2024-02-23T05:58:33;6.70;99.90
27858;DHT22;16852;51.446;6.528;2024-02-23T06:00:33;6.70;99.90
27858;DHT22;16852;51.446;6.528;2024-02-23T06:02:34;6.70;99.90
27858;DHT22;16852;51.446;6.528;2024-02-23T06:04:35;6.80;99.90
27858;DHT22;16852;51.446;6.528;2024-02-23T06:06:35;6.70;99.90
27858;DHT22;16852;51.446;6.528;2024-02-23T06:08:36;6.80;99.90
27858;DHT22;16852;51.446;6.528;2024-02-23T06:10:37;6.70;99.90
27858;DHT22;16852;51.446;6.528;2024-02-23T06:12:38;6.80;99.90
27858;DHT22;16852;51.446;6.528;2024-02-23T06:14:38;6.80;99.90
27858;DHT22;16852;51.446;6.528;2024-02-23T06:16:40;6.90;99.90
27858;DHT22;16852;51.446;6.528;2024-02-23T06:18:40;6.90;99.90
27858;DHT22;16852;51.446;6.528;2024-02-23T06:20:41;6.90;99.90
27858;DHT22;16852;51.446;6.528;2024-02-23T06:22:42;6.90;99.90
27858;DHT22;16852;51.446;6.528;2024-02-23T06:24:42;6.90;99.90
27858;DHT22;16852;51.446;6.528;2024-02-23T06:26:43;6.90;99.90
27858;DHT22;16852;51.446;6.528;2024-02-23T06:28:44;6.90;99.90
27858;DHT22;16852;51.446;6.528;2024-02-23T06:30:44;6.90;99.90
27858;DHT22;16852;51.446;6.528;2024-02-23T06:32:45;6.90;99.90
27858;DHT22;16852;51.446;6.528;2024-02-23T06:34:46;7.00;99.90
27858;DHT22;16852;51.446;6.528;2024-02-23T06:36:46;7.00;99.90
27858;DHT22;16852;51.446;6.528;2024-02-23T06:38:47;7.00;99.90
27858;DHT22;16852;51.446;6.528;2024-02-23T06:40:48;7.00;99.90
27858;DHT22;16852;51.446;6.528;2024-02-23T06:42:48;7.00;99.90
27858;DHT22;16852;51.446;6.528;2024-02-23T06:44:50;7.00;99.90
27858;DHT22;16852;51.446;6.528;2024-02-23T06:46:51;7.00;99.90
27858;DHT22;16852;51.446;6.528;2024-02-23T06:48:51;7.00;99.90
27858;DHT22;16852;51.446;6.528;2024-02-23T06:50:52;7.10;99.90
27858;DHT22;16852;51.446;6.528;2024-02-23T06:52:52;7.10;99.90
27858;DHT22;16852;51.446;6.528;2024-02-23T06:54:53;7.10;99.90
27858;DHT22;16852;51.446;6.528;2024-02-23T06:56:54;7.10;99.90
27858;DHT22;16852;51.446;6.528;2024-02-23T06:58:54;7.10;99.90
27858;DHT22;16852;51.446;6.528;2024-02-23T07:00:55;7.10;99.90
27858;DHT22;16852;51.446;6.528;2024-02-23T07:02:56;7.10;99.90
27858;DHT22;16852;51.446;6.528;2024-02-23T07:04:59;7.10;99.90
27858;DHT22;16852;51.446;6.528;2024-02-23T07:07:00;7.20;99.90
27858;DHT22;16852;51.446;6.528;2024-02-23T07:09:06;7.20;99.90
27858;DHT22;16852;51.446;6.528;2024-02-23T07:11:08;7.20;99.90
27858;DHT22;16852;51.446;6.528;2024-02-23T07:13:10;7.20;99.90
27858;DHT22;16852;51.446;6.528;2024-02-23T07:15:11;7.20;99.90
27858;DHT22;16852;51.446;6.528;2024-02-23T07:17:11;7.20;99.90
27858;DHT22;16852;51.446;6.528;2024-02-23T07:19:12;7.20;99.90
27858;DHT22;16852;51.446;6.528;2024-02-23T07:21:13;7.20;99.90
27858;DHT22;16852;51.446;6.528;2024-02-23T07:23:13;7.30;99.90
27858;DHT22;16852;51.446;6.528;2024-02-23T07:25:17;7.30;99.90
27858;DHT22;16852;51.446;6.528;2024-02-23T07:27:18;7.30;99.90
27858;DHT22;16852;51.446;6.528;2024-02-23T07:29:18;7.20;99.90
27858;DHT22;16852;51.446;6.528;2024-02-23T07:31:19;7.30;99.90
27858;DHT22;16852;51.446;6.528;2024-02-23T07:33:20;7.20;99.90
27858;DHT22;16852;51.446;6.528;2024-02-23T07:35:21;7.30;99.90
27858;DHT22;16852;51.446;6.528;2024-02-23T07:37:22;7.30;99.90
27858;DHT22;16852;51.446;6.528;2024-02-23T07:39:22;7.30;99.90
27858;DHT22;16852;51.446;6.528;2024-02-23T07:41:23;7.30;99.90
27858;DHT22;16852;51.446;6.528;2024-02-23T07:43:23;7.30;99.90
27858;DHT22;16852;51.446;6.528;2024-02-23T07:45:24;7.40;99.90
27858;DHT22;16852;51.446;6.528;2024-02-23T07:47:26;7.30;99.90
27858;DHT22;16852;51.446;6.528;2024-02-23T07:49:27;7.40;99.90
27858;DHT22;16852;51.446;6.528;2024-02-23T07:51:28;7.40;99.90
27858;DHT22;16852;51.446;6.528;2024-02-23T07:53:29;7.40;99.90
27858;DHT22;16852;51.446;6.528;2024-02-23T07:55:30;7.50;99.90
27858;DHT22;16852;51.446;6.528;2024-02-23T07:57:30;7.50;99.90
27858;DHT22;16852;51.446;6.528;2024-02-23T07:59:32;7.50;99.90
27858;DHT22;16852;51.446;6.528;2024-02-23T08:01:33;7.50;99.90
27858;DHT22;16852;51.446;6.528;2024-02-23T08:03:34;7.50;99.90
27858;DHT22;16852;51.446;6.528;2024-02-23T08:05:35;7.50;99.90
27858;DHT22;16852;51.446;6.528;2024-02-23T08:07:35;7.50;99.90
27858;DHT22;16852;51.446;6.528;2024-02-23T08:09:36;7.50;99.90
27858;DHT22;16852;51.446;6.528;2024-02-23T08:11:37;7.50;99.90
27858;DHT22;16852;51.446;6.528;2024-02-23T08:13:37;7.50;99.90
27858;DHT22;16852;51.446;6.528;2024-02-23T08:15:38;7.40;99.90
27858;DHT22;16852;51.446;6.528;2024-02-23T08:17:39;7.50;99.90
27858;DHT22;16852;51.446;6.528;2024-02-23T08:19:39;7.50;99.90
27858;DHT22;16852;51.446;6.528;2024-02-23T08:21:40;7.60;99.90
27858;DHT22;16852;51.446;6.528;2024-02-23T08:23:44;7.70;99.90
27858;DHT22;16852;51.446;6.528;2024-02-23T08:25:45;8.10;99.90
27858;DHT22;16852;51.446;6.528;2024-02-23T08:27:46;8.40;99.90
27858;DHT22;16852;51.446;6.528;2024-02-23T08:29:46;8.40;99.90
27858;DHT22;16852;51.446;6.528;2024-02-23T08:31:47;8.50;99.90
27858;DHT22;16852;51.446;6.528;2024-02-23T08:33:48;8.60;99.90
27858;DHT22;16852;51.446;6.528;2024-02-23T08:35:48;8.60;99.90
27858;DHT22;16852;51.446;6.528;2024-02-23T08:37:49;8.70;99.90
27858;DHT22;16852;51.446;6.528;2024-02-23T08:39:50;8.70;99.90
27858;DHT22;16852;51.446;6.528;2024-02-23T08:41:51;8.70;99.90
27858;DHT22;16852;51.446;6.528;2024-02-23T08:43:52;8.60;99.90
27858;DHT22;16852;51.446;6.528;2024-02-23T08:45:53;8.50;99.90
27858;DHT22;16852;51.446;6.528;2024-02-23T08:47:53;8.50;99.90
27858;DHT22;16852;51.446;6.528;2024-02-23T08:49:54;8.50;99.90
27858;DHT22;16852;51.446;6.528;2024-02-23T08:51:54;8.40;99.90
27858;DHT22;16852;51.446;6.528;2024-02-23T08:53:57;8.40;99.90
27858;DHT22;16852;51.446;6.528;2024-02-23T08:56:04;8.40;99.90
27858;DHT22;16852;51.446;6.528;2024-02-23T08:58:04;8.40;99.90
27858;DHT22;16852;51.446;6.528;2024-02-23T09:00:06;8.40;99.90
27858;DHT22;16852;51.446;6.528;2024-02-23T09:02:07;8.40;99.90
27858;DHT22;16852;51.446;6.528;2024-02-23T09:04:10;8.50;99.90
27858;DHT22;16852;51.446;6.528;2024-02-23T09:06:10;8.50;99.90
27858;DHT22;16852;51.446;6.528;2024-02-23T09:08:11;8.50;99.90
27858;DHT22;16852;51.446;6.528;2024-02-23T09:10:11;8.50;99.90
27858;DHT22;16852;51.446;6.528;2024-02-23T09:12:12;8.50;99.90
27858;DHT22;16852;51.446;6.528;2024-02-23T09:14:15;8.50;99.90
27858;DHT22;16852;51.446;6.528;2024-02-23T09:16:15;8.50;99.90
27858;DHT22;16852;51.446;6.528;2024-02-23T09:18:16;8.60;99.90
27858;DHT22;16852;51.446;6.528;2024-02-23T09:20:17;8.60;99.90
27858;DHT22;16852;51.446;6.528;2024-02-23T09:22:18;8.70;99.90
27858;DHT22;16852;51.446;6.528;2024-02-23T09:24:18;8.60;99.90
27858;DHT22;16852;51.446;6.528;2024-02-23T09:26:19;8.60;99.90
27858;DHT22;16852;51.446;6.528;2024-02-23T09:28:19;8.60;99.90
27858;DHT22;16852;51.446;6.528;2024-02-23T09:30:20;8.60;99.90
27858;DHT22;16852;51.446;6.528;2024-02-23T09:32:21;8.50;99.90
27858;DHT22;16852;51.446;6.528;2024-02-23T09:34:22;8.50;99.90
27858;DHT22;16852;51.446;6.528;2024-02-23T09:36:22;8.50;99.90
27858;DHT22;16852;51.446;6.528;2024-02-23T09:38:23;8.50;99.90
27858;DHT22;16852;51.446;6.528;2024-02-23T09:40:25;8.50;99.90
27858;DHT22;16852;51.446;6.528;2024-02-23T09:42:25;8.50;99.90
27858;DHT22;16852;51.446;6.528;2024-02-23T09:44:32;8.50;99.90
27858;DHT22;16852;51.446;6.528;2024-02-23T09:46:34;8.50;99.90
27858;DHT22;16852;51.446;6.528;2024-02-23T09:48:37;8.50;99.90
27858;DHT22;16852;51.446;6.528;2024-02-23T09:50:37;8.60;99.90
27858;DHT22;16852;51.446;6.528;2024-02-23T09:52:40;8.60;99.90
27858;DHT22;16852;51.446;6.528;2024-02-23T09:54:41;8.60;99.90
27858;DHT22;16852;51.446;6.528;2024-02-23T09:56:42;8.60;99.90
27858;DHT22;16852;51.446;6.528;2024-02-23T09:58:44;8.60;99.90
27858;DHT22;16852;51.446;6.528;2024-02-23T10:00:44;8.60;99.90
27858;DHT22;16852;51.446;6.528;2024-02-23T10:02:45;8.60;99.90
27858;DHT22;16852;51.446;6.528;2024-02-23T10:04:47;8.60;99.90
27858;DHT22;16852;51.446;6.528;2024-02-23T10:06:48;8.60;99.90
27858;DHT22;16852;51.446;6.528;2024-02-23T10:08:49;8.60;99.90
27858;DHT22;16852;51.446;6.528;2024-02-23T10:10:50;8.70;99.90
27858;DHT22;16852;51.446;6.528;2024-02-23T10:12:51;8.60;99.90
27858;DHT22;16852;51.446;6.528;2024-02-23T10:14:52;8.60;99.90
27858;DHT22;16852;51.446;6.528;2024-02-23T10:16:53;8.60;99.90
27858;DHT22;16852;51.446;6.528;2024-02-23T10:18:57;8.60;99.90
27858;DHT22;16852;51.446;6.528;2024-02-23T10:20:58;8.60;99.90
27858;DHT22;16852;51.446;6.528;2024-02-23T10:22:58;8.60;99.90
27858;DHT22;16852;51.446;6.528;2024-02-23T10:24:59;8.60;99.90
27858;DHT22;16852;51.446;6.528;2024-02-23T10:27:00;8.60;99.90
27858;DHT22;16852;51.446;6.528;2024-02-23T10:29:02;8.60;99.90
27858;DHT22;16852;51.446;6.528;2024-02-23T10:31:04;8.60;99.90
27858;DHT22;16852;51.446;6.528;2024-02-23T10:33:05;8.60;99.90
27858;DHT22;16852;51.446;6.528;2024-02-23T10:35:13;8.60;99.90
27858;DHT22;16852;51.446;6.528;2024-02-23T10:37:16;8.60;99.90
27858;DHT22;16852;51.446;6.528;2024-02-23T10:39:18;8.60;99.90
27858;DHT22;16852;51.446;6.528;2024-02-23T10:41:21;8.60;99.90
27858;DHT22;16852;51.446;6.528;2024-02-23T10:43:40;8.60;99.90
27858;DHT22;16852;51.446;6.528;2024-02-23T10:45:43;8.60;99.90
27858;DHT22;16852;51.446;6.528;2024-02-23T10:47:44;8.50;99.90
27858;DHT22;16852;51.446;6.528;2024-02-23T10:49:45;8.60;99.90
27858;DHT22;16852;51.446;6.528;2024-02-23T10:51:46;8.60;99.90
27858;DHT22;16852;51.446;6.528;2024-02-23T10:53:49;8.60;99.90
27858;DHT22;16852;51.446;6.528;2024-02-23T10:55:56;8.60;99.90
27858;DHT22;16852;51.446;6.528;2024-02-23T10:58:00;8.60;99.90
27858;DHT22;16852;51.446;6.528;2024-02-23T11:00:02;8.60;99.90
27858;DHT22;16852;51.446;6.528;2024-02-23T11:02:07;8.60;99.90
27858;DHT22;16852;51.446;6.528;2024-02-23T11:04:09;8.70;99.90
27858;DHT22;16852;51.446;6.528;2024-02-23T11:06:10;8.70;99.90
27858;DHT22;16852;51.446;6.528;2024-02-23T11:08:12;8.70;99.90
27858;DHT22;16852;51.446;6.528;2024-02-23T11:10:13;8.70;99.90
27858;DHT22;16852;51.446;6.528;2024-02-23T11:12:23;8.70;99.90
27858;DHT22;16852;51.446;6.528;2024-02-23T11:14:37;8.80;99.90
27858;DHT22;16852;51.446;6.528;2024-02-23T11:16:39;8.80;99.90
27858;DHT22;16852;51.446;6.528;2024-02-23T11:18:43;8.80;99.90
27858;DHT22;16852;51.446;6.528;2024-02-23T11:20:43;8.70;99.90
27858;DHT22;16852;51.446;6.528;2024-02-23T11:22:44;8.70;99.90
27858;DHT22;16852;51.446;6.528;2024-02-23T11:24:45;8.80;99.90
27858;DHT22;16852;51.446;6.528;2024-02-23T11:26:48;8.80;99.90
27858;DHT22;16852;51.446;6.528;2024-02-23T11:28:50;8.80;99.90
27858;DHT22;16852;51.446;6.528;2024-02-23T11:30:53;8.70;99.90
27858;DHT22;16852;51.446;6.528;2024-02-23T11:32:59;8.80;99.90
27858;DHT22;16852;51.446;6.528;2024-02-23T11:35:01;8.70;99.90
27858;DHT22;16852;51.446;6.528;2024-02-23T11:37:09;8.80;99.90
27858;DHT22;16852;51.446;6.528;2024-02-23T11:39:10;8.80;99.90
27858;DHT22;16852;51.446;6.528;2024-02-23T11:41:14;8.80;99.90
27858;DHT22;16852;51.446;6.528;2024-02-23T11:43:16;8.80;99.90
27858;DHT22;16852;51.446;6.528;2024-02-23T11:45:17;8.80;99.90
27858;DHT22;16852;51.446;6.528;2024-02-23T11:47:18;8.80;99.90
27858;DHT22;16852;51.446;6.528;2024-02-23T11:49:18;8.80;99.90
27858;DHT22;16852;51.446;6.528;2024-02-23T11:51:22;8.80;99.90
27858;DHT22;16852;51.446;6.528;2024-02-23T11:53:24;8.80;99.90
27858;DHT22;16852;51.446;6.528;2024-02-23T11:55:28;8.90;99.90
27858;DHT22;16852;51.446;6.528;2024-02-23T11:57:29;8.90;99.90
27858;DHT22;16852;51.446;6.528;2024-02-23T11:59:29;8.90;99.90
27858;DHT22;16852;51.446;6.528;2024-02-23T12:01:30;8.90;99.90
27858;DHT22;16852;51.446;6.528;2024-02-23T12:03:32;8.90;99.90
27858;DHT22;16852;51.446;6.528;2024-02-23T12:05:33;8.80;99.90
27858;DHT22;16852;51.446;6.528;2024-02-23T12:07:33;8.80;99.90
27858;DHT22;16852;51.446;6.528;2024-02-23T12:09:35;8.90;99.90
27858;DHT22;16852;51.446;6.528;2024-02-23T12:11:36;8.90;99.90
27858;DHT22;16852;51.446;6.528;2024-02-23T12:13:38;8.90;99.90
27858;DHT22;16852;51.446;6.528;2024-02-23T12:15:39;8.90;99.90
27858;DHT22;16852;51.446;6.528;2024-02-23T12:17:49;8.90;99.90
27858;DHT22;16852;51.446;6.528;2024-02-23T12:19:50;8.90;99.90
27858;DHT22;16852;51.446;6.528;2024-02-23T12:21:50;9.00;99.90
27858;DHT22;16852;51.446;6.528;2024-02-23T12:23:51;9.00;99.90
27858;DHT22;16852;51.446;6.528;2024-02-23T12:25:58;9.00;99.90
27858;DHT22;16852;51.446;6.528;2024-02-23T12:27:59;9.00;99.90
27858;DHT22;16852;51.446;6.528;2024-02-23T12:30:00;9.00;99.90
27858;DHT22;16852;51.446;6.528;2024-02-23T12:32:05;9.00;99.90
27858;DHT22;16852;51.446;6.528;2024-02-23T12:34:05;9.10;99.90
27858;DHT22;16852;51.446;6.528;2024-02-23T12:36:08;9.10;99.90
27858;DHT22;16852;51.446;6.528;2024-02-23T12:38:09;9.10;99.90
27858;DHT22;16852;51.446;6.528;2024-02-23T12:40:10;9.10;99.90
27858;DHT22;16852;51.446;6.528;2024-02-23T12:42:10;9.00;99.90
27858;DHT22;16852;51.446;6.528;2024-02-23T12:44:11;9.10;99.90
27858;DHT22;16852;51.446;6.528;2024-02-23T12:46:12;9.10;99.90
27858;DHT22;16852;51.446;6.528;2024-02-23T12:48:17;9.00;99.90
27858;DHT22;16852;51.446;6.528;2024-02-23T12:50:18;9.00;99.90
27858;DHT22;16852;51.446;6.528;2024-02-23T12:52:18;9.00;99.90
27858;DHT22;16852;51.446;6.528;2024-02-23T12:54:19;9.00;99.90
27858;DHT22;16852;51.446;6.528;2024-02-23T12:56:20;9.10;99.90
27858;DHT22;16852;51.446;6.528;2024-02-23T12:58:20;9.10;99.90
27858;DHT22;16852;51.446;6.528;2024-02-23T13:00:21;9.00;99.90